Terminal Aerodrome Forecast
Issued by NWS Wakefield, VA

Home | Current Version | Previous Version | Text Only | Print | Product List | Glossary On
Versions: 1 2 3 4 5 6 7 8 9 10 11 12 13
000
FTUS41 KAKQ 212300
TAFECG
TAF
KECG 212320Z 2200/2224 03007KT P6SM SCT070
     FM220300 04007KT P6SM OVC070
     FM220800 03010KT 5SM -RA OVC015
     FM221200 04012G18KT 2SM -RA BR OVC009
     FM221800 02009KT 4SM -DZ BR OVC007=

USA.gov is the U.S. government's official web portal to all federal, state and local government web resources and services.